Time;durP1;ratioP1;P1;durP2;ratioP2;P2;SDS_P1;SDS_P2;PMS_P1;PMS_P2;Temp;Humidity;BMP_temperature;BMP_pressure;BME280_temperature;BME280_humidity;BME280_pressure;Samples;Min_cycle;Max_cycle;Signal;HPM_P1;HPM_P2
2021/04/04 00:00:22;;;;;;;3.43;2.90;;;;;;;2.73;81.02;99063.88;5024447;28;20085;-60
2021/04/04 00:02:48;;;;;;;2.57;2.37;;;;;;;2.68;79.69;99070.50;5018939;28;20080;-60
2021/04/04 00:05:14;;;;;;;4.47;3.30;;;;;;;2.81;79.88;99069.06;5017205;28;20034;-60
2021/04/04 00:07:41;;;;;;;6.17;3.70;;;;;;;2.93;79.67;99073.53;5017107;28;20037;-60
2021/04/04 00:10:09;;;;;;;4.63;2.97;;;;;;;2.79;79.48;99068.19;5016597;28;20030;-59
2021/04/04 00:12:35;;;;;;;5.30;4.07;;;;;;;2.76;80.13;99071.50;5024288;28;20049;-60
2021/04/04 00:15:01;;;;;;;4.50;3.57;;;;;;;2.79;78.94;99080.00;5019663;28;20034;-60
2021/04/04 00:17:26;;;;;;;5.53;2.90;;;;;;;2.83;79.66;99074.16;5019057;28;20100;-60
2021/04/04 00:19:51;;;;;;;6.60;3.50;;;;;;;2.85;79.34;99080.09;5018560;28;20030;-60
2021/04/04 00:22:17;;;;;;;6.53;3.10;;;;;;;2.85;79.43;99075.03;5020262;28;20273;-60
2021/04/04 00:24:42;;;;;;;8.67;3.37;;;;;;;2.76;80.69;99081.63;5019926;28;20037;-60
2021/04/04 00:27:08;;;;;;;3.73;2.90;;;;;;;2.86;78.27;99081.81;5020035;28;20029;-60
2021/04/04 00:29:33;;;;;;;4.87;3.40;;;;;;;2.87;78.58;99075.94;5018739;28;20033;-59
2021/04/04 00:31:59;;;;;;;5.20;3.17;;;;;;;2.92;77.77;99079.41;5022460;28;20032;-60
2021/04/04 00:34:24;;;;;;;5.93;3.10;;;;;;;2.92;77.29;99072.66;5017921;28;20038;-61
2021/04/04 00:36:50;;;;;;;5.43;3.20;;;;;;;3.00;76.37;99076.19;5019373;28;20033;-61
2021/04/04 00:39:17;;;;;;;6.50;2.87;;;;;;;3.00;76.88;99077.88;5025658;28;20029;-60
2021/04/04 00:41:43;;;;;;;6.50;3.37;;;;;;;3.08;76.53;99072.13;5021268;28;20049;-61
2021/04/04 00:44:09;;;;;;;6.37;2.87;;;;;;;3.07;76.39;99074.59;5018263;28;20030;-60
2021/04/04 00:46:35;;;;;;;6.27;2.67;;;;;;;3.16;75.89;99078.16;5019974;28;20044;-60
2021/04/04 00:49:00;;;;;;;8.30;3.23;;;;;;;3.08;77.05;99079.72;5017289;28;20034;-60
2021/04/04 00:51:27;;;;;;;5.40;3.17;;;;;;;3.01;78.04;99074.50;5020076;28;20150;-60
2021/04/04 00:53:53;;;;;;;5.87;3.17;;;;;;;3.11;77.96;99074.69;5021464;28;20082;-60
2021/04/04 00:56:18;;;;;;;3.63;3.33;;;;;;;3.06;76.96;99076.28;5018052;28;20387;-60
2021/04/04 00:58:45;;;;;;;5.33;3.07;;;;;;;3.08;77.00;99086.44;5022644;28;20038;-60
2021/04/04 01:01:11;;;;;;;4.93;2.93;;;;;;;3.10;77.18;99080.56;5018232;28;20065;-61
2021/04/04 01:03:37;;;;;;;5.67;3.23;;;;;;;3.14;76.53;99078.97;5017140;28;20435;-60
2021/04/04 01:06:06;;;;;;;3.73;2.97;;;;;;;3.17;76.45;99077.34;5017575;28;20034;-60
2021/04/04 01:08:33;;;;;;;4.00;2.70;;;;;;;3.02;75.88;99061.84;5017492;28;20065;-60
2021/04/04 01:11:00;;;;;;;8.33;3.70;;;;;;;3.04;76.70;99079.63;5017850;28;20026;-60
2021/04/04 01:13:37;;;;;;;4.20;2.43;;;;;;;3.02;77.27;99077.06;5017522;28;20034;-60
2021/04/04 01:16:20;;;;;;;4.10;2.90;;;;;;;2.94;78.08;99076.06;5015692;28;20030;-60
2021/04/04 01:18:48;;;;;;;3.20;2.90;;;;;;;3.00;77.06;99083.78;5015563;28;20044;-60
2021/04/04 01:21:16;;;;;;;4.43;3.10;;;;;;;3.05;77.50;99088.94;5017680;28;20458;-60
2021/04/04 01:23:41;;;;;;;6.20;3.23;;;;;;;2.93;77.14;99093.78;5017847;28;20141;-61
2021/04/04 01:26:33;;;;;;;4.83;2.87;;;;;;;2.87;75.87;99088.59;5020774;28;20171;-60
2021/04/04 01:28:59;;;;;;;4.77;2.83;;;;;;;3.04;75.72;99094.81;5015503;28;20146;-60
2021/04/04 01:31:26;;;;;;;2.67;2.20;;;;;;;3.08;74.46;99084.78;5016345;28;20021;-60
2021/04/04 01:33:54;;;;;;;4.53;2.57;;;;;;;3.17;73.94;99091.69;5018083;28;20025;-60
2021/04/04 01:36:22;;;;;;;3.57;2.90;;;;;;;3.17;74.32;99089.16;5015006;28;20109;-60
2021/04/04 01:38:48;;;;;;;3.10;2.70;;;;;;;3.12;74.03;99084.00;5016043;28;20026;-60
2021/04/04 01:41:32;;;;;;;2.77;2.30;;;;;;;3.21;73.98;99088.38;5015700;28;20033;-60
2021/04/04 01:44:11;;;;;;;3.60;2.57;;;;;;;3.14;73.16;99077.25;5016557;28;20034;-60
2021/04/04 01:46:37;;;;;;;3.20;2.87;;;;;;;3.30;71.94;99098.69;5016533;28;20040;-60
2021/04/04 01:49:03;;;;;;;3.77;2.37;;;;;;;3.25;72.34;99085.06;5016897;28;20033;-60
2021/04/04 01:51:30;;;;;;;3.00;2.20;;;;;;;3.23;71.99;99068.97;5018155;28;20034;-60
2021/04/04 01:53:58;;;;;;;4.20;2.77;;;;;;;3.40;72.21;99100.50;5019755;28;20265;-59
2021/04/04 01:56:24;;;;;;;3.17;2.43;;;;;;;3.46;71.23;99090.50;5017344;28;20030;-60
2021/04/04 01:58:51;;;;;;;3.57;2.63;;;;;;;3.41;71.65;99101.38;5016458;28;20211;-60
2021/04/04 02:01:17;;;;;;;3.60;2.73;;;;;;;3.50;70.97;99099.00;5014891;28;20038;-60
2021/04/04 02:03:44;;;;;;;4.23;2.63;;;;;;;3.48;71.11;99096.44;5016000;28;20046;-60
2021/04/04 02:06:11;;;;;;;2.97;2.50;;;;;;;3.51;70.51;99096.50;5015972;28;20295;-60
2021/04/04 02:08:39;;;;;;;5.10;2.73;;;;;;;3.52;70.69;99095.66;5016954;28;20467;-60
2021/04/04 02:11:05;;;;;;;3.00;2.50;;;;;;;3.58;70.22;99099.97;5018218;28;20450;-60
2021/04/04 02:13:32;;;;;;;3.53;2.00;;;;;;;3.65;70.33;99102.63;5016272;28;20113;-60
2021/04/04 02:15:59;;;;;;;3.97;2.50;;;;;;;3.59;70.02;99097.47;5016349;28;20049;-60
2021/04/04 02:18:25;;;;;;;4.47;2.93;;;;;;;3.58;70.36;99103.38;5015977;28;20124;-60
2021/04/04 02:20:54;;;;;;;3.90;2.67;;;;;;;3.59;70.91;99097.47;5017694;28;20036;-60
2021/04/04 02:23:20;;;;;;;5.07;3.60;;;;;;;3.54;70.12;99098.22;5017346;28;20375;-60
2021/04/04 02:25:45;;;;;;;4.10;3.00;;;;;;;3.51;70.74;99099.03;5019394;28;20033;-60
2021/04/04 02:28:11;;;;;;;3.87;3.57;;;;;;;3.51;70.50;99098.19;5019574;28;20044;-60
2021/04/04 02:30:37;;;;;;;4.00;3.10;;;;;;;3.58;70.57;99093.22;5016256;28;20379;-60
2021/04/04 02:33:10;;;;;;;4.10;3.70;;;;;;;3.49;71.08;99090.53;5016863;28;20030;-59
2021/04/04 02:35:44;;;;;;;3.37;3.00;;;;;;;3.49;71.56;99087.16;5017982;28;20068;-60
2021/04/04 02:38:15;;;;;;;4.27;3.30;;;;;;;3.43;70.59;99084.53;5015898;28;20041;-60
2021/04/04 02:40:44;;;;;;;4.47;3.30;;;;;;;3.44;70.76;99091.28;5018485;28;20030;-59
2021/04/04 02:43:14;;;;;;;6.17;3.63;;;;;;;3.39;70.14;99091.22;5014946;28;20030;-60
2021/04/04 02:45:43;;;;;;;3.43;3.13;;;;;;;3.38;69.40;99093.72;5015460;28;20038;-60
2021/04/04 02:48:14;;;;;;;5.10;3.13;;;;;;;3.44;70.29;99093.81;5014134;28;20030;-60
2021/04/04 02:50:41;;;;;;;4.30;3.40;;;;;;;3.40;70.33;99092.06;5014721;28;20084;-59
2021/04/04 02:53:07;;;;;;;3.87;3.57;;;;;;;3.43;70.58;99089.59;5014993;28;20092;-60
2021/04/04 02:55:37;;;;;;;4.87;2.77;;;;;;;3.38;70.86;99081.91;5016614;28;20395;-60
2021/04/04 02:58:05;;;;;;;3.97;3.57;;;;;;;3.37;70.57;99089.47;5015655;28;20084;-60
2021/04/04 03:00:31;;;;;;;4.23;3.50;;;;;;;3.40;71.02;99094.59;5018882;28;20399;-60
2021/04/04 03:02:58;;;;;;;4.17;3.20;;;;;;;3.36;70.44;99086.09;5014470;28;20045;-60
2021/04/04 03:05:26;;;;;;;5.40;4.00;;;;;;;3.49;71.20;99094.75;5018155;28;20367;-60
2021/04/04 03:07:53;;;;;;;5.63;3.60;;;;;;;3.38;70.47;99076.84;5015782;28;20034;-60
2021/04/04 03:10:18;;;;;;;3.53;3.23;;;;;;;3.45;69.68;99087.94;5016664;28;20030;-60
2021/04/04 03:12:46;;;;;;;5.30;3.20;;;;;;;3.44;70.19;99092.13;5018890;28;20347;-60
2021/04/04 03:15:14;;;;;;;5.30;3.93;;;;;;;3.58;70.19;99099.97;5017861;28;20371;-60
2021/04/04 03:17:41;;;;;;;3.83;3.13;;;;;;;3.51;70.13;99091.44;5021897;28;20026;-61
2021/04/04 03:20:12;;;;;;;3.37;3.07;;;;;;;3.52;70.40;99094.81;5023057;28;20034;-60
2021/04/04 03:22:40;;;;;;;3.37;3.07;;;;;;;3.40;70.28;99092.91;5018476;28;20058;-61
2021/04/04 03:25:07;;;;;;;4.40;2.97;;;;;;;3.37;70.53;99086.94;5023730;28;20100;-60
2021/04/04 03:27:35;;;;;;;3.40;3.07;;;;;;;3.39;71.13;99093.78;5022151;28;20316;-61
2021/04/04 03:30:05;;;;;;;3.83;2.90;;;;;;;3.31;70.49;99067.41;5020373;28;20123;-60
2021/04/04 03:32:31;;;;;;;6.73;3.63;;;;;;;3.48;70.70;99093.91;5027097;28;20037;-60
2021/04/04 03:34:57;;;;;;;4.33;3.43;;;;;;;3.40;70.33;99077.72;5025675;28;20045;-60
2021/04/04 03:37:23;;;;;;;6.13;3.50;;;;;;;3.43;70.50;99087.91;5022557;28;20048;-60
2021/04/04 03:39:49;;;;;;;6.37;4.00;;;;;;;3.48;70.63;99088.81;5019150;28;20402;-60
2021/04/04 03:42:14;;;;;;;4.83;3.30;;;;;;;3.51;70.04;99095.63;5018755;28;20030;-61
2021/04/04 03:44:41;;;;;;;5.47;4.10;;;;;;;3.54;70.02;99104.16;5018566;28;20402;-60
2021/04/04 03:47:07;;;;;;;4.90;3.43;;;;;;;3.52;69.84;99089.75;5021305;28;20033;-60
2021/04/04 03:49:34;;;;;;;5.63;3.73;;;;;;;3.54;70.14;99096.53;5017840;28;20057;-59
2021/04/04 03:52:00;;;;;;;7.10;5.23;;;;;;;3.47;70.02;99084.59;5019227;28;20076;-59
2021/04/04 03:54:30;;;;;;;5.87;4.00;;;;;;;3.47;69.68;99096.44;5018244;28;20026;-59
2021/04/04 03:56:56;;;;;;;4.73;3.47;;;;;;;3.37;69.94;99092.88;5017876;28;20037;-59
2021/04/04 03:59:25;;;;;;;3.93;3.20;;;;;;;3.39;70.08;99075.19;5018766;28;20049;-59
2021/04/04 04:01:52;;;;;;;5.50;4.13;;;;;;;3.46;70.28;99094.72;5018480;28;20038;-59
2021/04/04 04:04:19;;;;;;;5.57;3.23;;;;;;;3.39;70.51;99103.91;5016318;28;20380;-59
2021/04/04 04:06:46;;;;;;;5.17;3.53;;;;;;;3.41;70.08;99093.78;5018706;28;20439;-60
2021/04/04 04:09:17;;;;;;;5.40;3.80;;;;;;;3.50;70.32;99101.53;5018239;28;20116;-59
2021/04/04 04:11:45;;;;;;;5.10;3.87;;;;;;;3.45;69.25;99100.59;5017579;28;20097;-60
2021/04/04 04:14:13;;;;;;;4.73;3.97;;;;;;;3.53;69.57;99102.44;5005529;28;20148;-59
2021/04/04 04:16:40;;;;;;;4.40;3.87;;;;;;;3.36;69.54;99086.09;5021330;28;20072;-59
2021/04/04 04:19:06;;;;;;;5.83;3.60;;;;;;;3.46;69.63;99098.09;5019219;28;20051;-59
2021/04/04 04:21:33;;;;;;;4.17;3.70;;;;;;;3.45;69.55;99098.06;5019061;28;20303;-59
2021/04/04 04:24:01;;;;;;;4.50;3.33;;;;;;;3.45;69.31;99091.31;5017098;28;20061;-60
2021/04/04 04:26:29;;;;;;;4.13;3.70;;;;;;;3.50;69.29;99099.00;5019499;28;20034;-59
2021/04/04 04:28:55;;;;;;;6.13;4.07;;;;;;;3.50;68.98;99101.53;5024944;28;20117;-58
2021/04/04 04:31:26;;;;;;;4.07;3.20;;;;;;;3.48;69.36;99093.06;5020992;28;20116;-59
2021/04/04 04:33:54;;;;;;;3.27;2.97;;;;;;;3.43;69.59;99093.00;5017364;28;20265;-60
2021/04/04 04:36:21;;;;;;;4.40;3.03;;;;;;;3.48;69.58;99096.44;5017635;28;20038;-60
2021/04/04 04:38:49;;;;;;;5.17;3.63;;;;;;;3.51;69.28;99103.25;5017605;28;20040;-60
2021/04/04 04:41:16;;;;;;;4.23;3.20;;;;;;;3.40;69.80;99103.06;5016605;28;20117;-60
2021/04/04 04:43:44;;;;;;;5.17;3.70;;;;;;;3.48;68.98;99103.22;5016404;28;20033;-60
2021/04/04 04:46:13;;;;;;;5.10;3.23;;;;;;;3.42;68.67;99098.88;5016480;28;20331;-60
2021/04/04 04:48:38;;;;;;;7.53;4.20;;;;;;;3.42;69.10;99103.09;5018047;28;20033;-60
2021/04/04 04:51:04;;;;;;;8.77;5.30;;;;;;;3.48;69.40;99103.22;5016613;28;20079;-60
2021/04/04 04:53:31;;;;;;;4.83;3.80;;;;;;;3.45;69.39;99098.91;5016817;28;20036;-60
2021/04/04 04:56:01;;;;;;;5.60;3.73;;;;;;;3.43;68.36;99103.13;5017909;28;20038;-60
2021/04/04 04:58:31;;;;;;;4.20;3.10;;;;;;;3.43;68.26;99109.88;5017460;28;20355;-60
2021/04/04 05:01:03;;;;;;;4.77;3.57;;;;;;;3.39;69.32;99103.91;5015413;28;20499;-60
2021/04/04 05:03:28;;;;;;;8.10;3.20;;;;;;;3.30;69.08;99107.94;5018437;28;20033;-60
2021/04/04 05:05:57;;;;;;;5.60;3.43;;;;;;;3.41;69.33;99108.97;5016237;28;20041;-60
2021/04/04 05:08:24;;;;;;;4.53;3.30;;;;;;;3.49;69.31;99113.34;5015041;28;20053;-60
2021/04/04 05:10:52;;;;;;;3.97;2.70;;;;;;;3.42;68.60;99106.47;5016891;28;20041;-60
2021/04/04 05:13:19;;;;;;;5.60;2.90;;;;;;;3.43;69.06;99115.78;5017890;28;20022;-60
2021/04/04 05:15:47;;;;;;;6.00;3.67;;;;;;;3.45;68.32;99095.53;5020657;28;20375;-60
2021/04/04 05:18:12;;;;;;;3.70;3.03;;;;;;;3.56;68.79;99109.25;5007045;28;20084;-60
2021/04/04 05:20:38;;;;;;;3.27;2.97;;;;;;;3.51;67.83;99115.91;5015536;28;20034;-60
2021/04/04 05:23:04;;;;;;;3.00;2.70;;;;;;;3.57;68.26;99108.41;5015973;28;20120;-60
2021/04/04 05:25:30;;;;;;;5.13;3.33;;;;;;;3.50;67.49;99106.59;5016289;28;20029;-60
2021/04/04 05:27:57;;;;;;;4.20;3.60;;;;;;;3.56;67.58;99114.31;5015849;28;20694;-60
2021/04/04 05:30:25;;;;;;;4.73;3.50;;;;;;;3.63;67.45;99108.50;5018863;28;20271;-61
2021/04/04 05:32:50;;;;;;;4.33;3.07;;;;;;;3.74;67.12;99116.28;5018832;28;20058;-59
2021/04/04 05:35:18;;;;;;;4.47;3.03;;;;;;;3.75;67.64;99123.06;5018820;28;20039;-59
2021/04/04 05:37:44;;;;;;;4.50;3.30;;;;;;;3.80;66.79;99127.38;5014477;28;20060;-59
2021/04/04 05:40:28;;;;;;;6.67;3.23;;;;;;;3.75;67.41;99130.66;5014587;28;20088;-61
2021/04/04 05:42:56;;;;;;;3.03;2.80;;;;;;;3.68;67.76;99128.03;5015632;28;20073;-60
2021/04/04 05:45:31;;;;;;;4.33;3.13;;;;;;;3.71;67.30;99132.31;5017575;28;20087;-60
2021/04/04 05:48:11;;;;;;;4.13;3.00;;;;;;;3.64;67.38;99123.75;5016465;28;20272;-61
2021/04/04 05:51:11;;;;;;;3.87;3.07;;;;;;;3.69;67.39;99134.81;5015846;28;20030;-60
2021/04/04 05:53:51;;;;;;;3.67;3.00;;;;;;;3.77;67.67;99145.09;5017673;28;20056;-61
2021/04/04 05:56:28;;;;;;;3.37;3.00;;;;;;;4.02;67.11;99144.66;5018756;28;20286;-59
2021/04/04 05:59:02;;;;;;;3.77;3.03;;;;;;;3.92;66.16;99159.69;5006821;28;20049;-60
2021/04/04 06:01:34;;;;;;;4.10;3.53;;;;;;;3.85;66.24;99156.22;5018769;28;20028;-60
2021/04/04 06:04:21;;;;;;;3.87;3.10;;;;;;;3.92;67.18;99150.41;5016693;28;20026;-60
2021/04/04 06:07:12;;;;;;;3.83;3.30;;;;;;;3.91;67.22;99156.28;5016001;28;20056;-60
2021/04/04 06:10:01;;;;;;;5.00;3.47;;;;;;;4.02;66.54;99153.94;5031958;28;20030;-61
2021/04/04 06:12:58;;;;;;;5.60;3.17;;;;;;;3.99;66.72;99161.47;5013944;28;20026;-62
2021/04/04 06:15:36;;;;;;;3.60;2.77;;;;;;;3.95;66.31;99162.25;5015721;28;20390;-59
2021/04/04 06:18:19;;;;;;;3.80;3.20;;;;;;;4.00;66.38;99160.66;5015604;28;20022;-59
2021/04/04 06:20:58;;;;;;;3.77;3.23;;;;;;;4.08;65.91;99164.16;5017909;28;20048;-59
2021/04/04 06:23:33;;;;;;;3.37;3.00;;;;;;;4.10;66.18;99170.13;5014910;28;20026;-59
2021/04/04 06:26:12;;;;;;;4.20;3.80;;;;;;;4.16;65.60;99174.44;5015868;28;20372;-60
2021/04/04 06:28:45;;;;;;;5.30;3.63;;;;;;;4.29;65.12;99176.31;5016352;28;20033;-60
2021/04/04 06:31:32;;;;;;;6.13;4.30;;;;;;;4.26;65.68;99179.66;5015002;28;20061;-59
2021/04/04 06:34:12;;;;;;;4.43;3.30;;;;;;;4.26;65.23;99179.66;5011609;28;20045;-59
2021/04/04 06:36:45;;;;;;;6.03;4.10;;;;;;;4.30;64.88;99178.88;5014015;28;20280;-59
2021/04/04 06:39:33;;;;;;;4.33;3.73;;;;;;;4.31;65.33;99184.81;5015488;28;20429;-59
2021/04/04 06:42:10;;;;;;;3.93;3.57;;;;;;;4.32;64.88;99191.59;4991238;28;20417;-59
2021/04/04 06:44:45;;;;;;;4.50;3.70;;;;;;;4.47;64.39;99187.59;5010010;28;20046;-59
2021/04/04 06:47:21;;;;;;;5.22;3.70;;;;;;;4.47;64.49;99184.19;5016068;28;20144;-59
2021/04/04 06:50:14;;;;;;;7.17;4.67;;;;;;;4.80;64.30;99192.25;5014336;28;20077;-60
2021/04/04 06:52:53;;;;;;;7.20;4.20;;;;;;;5.05;63.56;99190.88;5014280;28;20046;-59
2021/04/04 06:55:29;;;;;;;4.60;3.83;;;;;;;5.04;62.50;99196.81;5013592;28;20328;-60
2021/04/04 06:58:36;;;;;;;7.30;4.90;;;;;;;4.81;63.78;99190.56;4992332;28;20029;-59
2021/04/04 07:01:15;;;;;;;5.77;4.73;;;;;;;4.78;63.70;99185.47;4932485;29;20078;-61
2021/04/04 07:03:49;;;;;;;3.83;3.37;;;;;;;4.82;63.07;99192.28;4934007;29;20115;-61
2021/04/04 07:06:30;;;;;;;4.50;3.70;;;;;;;4.95;62.89;99194.16;4928529;29;20267;-60
2021/04/04 07:09:38;;;;;;;5.10;3.50;;;;;;;5.12;62.10;99187.59;4931918;29;20075;-60
2021/04/04 07:12:19;;;;;;;5.67;4.23;;;;;;;5.14;62.13;99190.97;4933146;29;20043;-60
2021/04/04 07:15:05;;;;;;;5.93;4.03;;;;;;;5.19;61.53;99191.03;4932753;29;20074;-60
2021/04/04 07:18:02;;;;;;;4.27;3.47;;;;;;;5.31;61.97;99191.16;4933771;29;20062;-60
2021/04/04 07:20:55;;;;;;;4.90;3.90;;;;;;;5.45;61.64;99192.19;4950207;29;20035;-59
2021/04/04 07:23:58;;;;;;;3.53;3.23;;;;;;;5.45;61.78;99193.03;4954237;29;20302;-60
2021/04/04 07:26:47;;;;;;;5.93;4.23;;;;;;;5.38;61.02;99201.44;4954809;28;20046;-60
2021/04/04 07:29:47;;;;;;;5.57;3.57;;;;;;;5.18;61.13;99192.72;4942630;29;20365;-63
2021/04/04 07:32:44;;;;;;;5.10;3.30;;;;;;;5.46;60.81;99199.84;4955735;29;20424;-60
2021/04/04 07:35:16;;;;;;;4.30;3.90;;;;;;;5.59;59.49;99200.81;4986595;28;20056;-61
2021/04/04 07:37:58;;;;;;;3.80;3.40;;;;;;;5.30;59.68;99200.50;5012376;28;20029;-61
2021/04/04 07:40:33;;;;;;;3.67;2.93;;;;;;;5.34;60.16;99207.34;5014275;28;20025;-61
2021/04/04 07:43:01;;;;;;;5.20;3.80;;;;;;;5.23;60.28;99196.16;4999888;28;20026;-61
2021/04/04 07:45:38;;;;;;;5.50;3.53;;;;;;;5.41;60.76;99196.38;5020782;28;20064;-61
2021/04/04 07:48:27;;;;;;;5.80;3.30;;;;;;;5.81;60.44;99206.94;5020321;28;20030;-60
2021/04/04 07:51:08;;;;;;;3.50;3.20;;;;;;;5.67;59.33;99208.50;5022845;28;20151;-59
2021/04/04 07:53:47;;;;;;;4.90;3.43;;;;;;;5.52;59.91;99204.97;5019006;28;20030;-60
2021/04/04 07:56:24;;;;;;;3.63;3.00;;;;;;;5.16;60.36;99209.66;5019809;28;20021;-60
2021/04/04 07:58:49;;;;;;;3.40;3.10;;;;;;;4.92;61.49;99211.91;5017019;28;20046;-60
2021/04/04 08:01:25;;;;;;;5.43;3.27;;;;;;;5.01;60.88;99212.00;5021251;28;20037;-60
2021/04/04 08:04:13;;;;;;;4.95;3.47;;;;;;;5.21;61.73;99197.88;5019488;28;20350;-61
2021/04/04 08:06:45;;;;;;;5.60;3.50;;;;;;;5.44;61.22;99214.19;5020361;28;20314;-60
2021/04/04 08:09:27;;;;;;;4.93;3.90;;;;;;;5.45;60.94;99209.97;5017276;28;20026;-59
2021/04/04 08:12:06;;;;;;;4.93;3.20;;;;;;;5.47;59.90;99205.78;5018555;28;20060;-60
2021/04/04 08:14:42;;;;;;;4.10;3.70;;;;;;;5.68;59.55;99213.63;5017423;28;20044;-60
2021/04/04 08:17:08;;;;;;;5.70;4.17;;;;;;;5.84;59.30;99218.00;5019441;28;20034;-60
2021/04/04 08:19:34;;;;;;;5.47;4.53;;;;;;;5.76;59.21;99211.16;5017573;28;20108;-61
2021/04/04 08:22:10;;;;;;;6.60;4.60;;;;;;;5.83;58.78;99215.44;5017280;28;20341;-60
2021/04/04 08:24:48;;;;;;;3.47;3.10;;;;;;;5.88;57.50;99218.91;5017582;28;20026;-60
2021/04/04 08:27:22;;;;;;;5.67;4.07;;;;;;;6.00;57.58;99219.03;5019068;28;20022;-60
2021/04/04 08:30:30;;;;;;;4.32;3.92;;;;;;;6.10;57.36;99218.25;5019505;28;20049;-60
2021/04/04 08:33:05;;;;;;;4.03;3.10;;;;;;;6.10;57.93;99214.88;5009530;28;20096;-61
2021/04/04 08:35:36;;;;;;;4.40;3.50;;;;;;;6.26;57.34;99214.13;5010114;28;20045;-61
2021/04/04 08:38:23;;;;;;;3.37;3.07;;;;;;;6.09;56.71;99214.00;4998115;28;20038;-61
2021/04/04 08:40:49;;;;;;;3.60;3.27;;;;;;;6.26;56.16;99201.41;5007999;28;20071;-60
2021/04/04 08:43:16;;;;;;;5.03;3.17;;;;;;;6.41;55.59;99204.03;4996937;28;20111;-61
2021/04/04 08:45:53;;;;;;;6.40;4.17;;;;;;;6.20;56.40;99209.84;5008837;28;20045;-59
2021/04/04 08:48:20;;;;;;;4.80;3.47;;;;;;;6.04;55.87;99200.38;5007727;28;20110;-59
2021/04/04 08:50:48;;;;;;;7.17;4.70;;;;;;;6.19;55.89;99204.75;5004520;28;20038;-61
2021/04/04 08:53:31;;;;;;;5.17;3.43;;;;;;;6.76;53.77;99197.47;5004880;28;20100;-59
2021/04/04 08:55:59;;;;;;;3.43;2.83;;;;;;;6.88;53.30;99196.69;5007193;28;20054;-61
2021/04/04 08:58:38;;;;;;;4.20;3.60;;;;;;;7.44;53.51;99186.69;5006347;28;20287;-61
2021/04/04 09:01:11;;;;;;;3.07;2.60;;;;;;;7.45;52.42;99196.06;5007068;28;20093;-60
2021/04/04 09:03:40;;;;;;;4.90;3.40;;;;;;;7.01;53.64;99187.38;5008493;28;20061;-59
2021/04/04 09:06:08;;;;;;;3.50;2.87;;;;;;;6.72;54.20;99189.81;4976166;28;20121;-59
2021/04/04 09:08:39;;;;;;;2.80;2.53;;;;;;;6.75;53.70;99197.47;4993607;28;20043;-60
2021/04/04 09:11:07;;;;;;;4.60;3.33;;;;;;;6.55;54.78;99199.06;5016008;28;20037;-60
2021/04/04 09:13:34;;;;;;;3.53;3.23;;;;;;;6.95;53.41;99182.28;5014453;28;20030;-60
2021/04/04 09:16:10;;;;;;;3.90;3.17;;;;;;;7.18;51.69;99189.16;5016519;28;20042;-61
2021/04/04 09:19:03;;;;;;;3.83;3.43;;;;;;;7.34;50.83;99177.34;5015258;28;20034;-61
2021/04/04 09:21:36;;;;;;;3.80;3.20;;;;;;;7.71;51.17;99180.78;5008885;28;20327;-61
2021/04/04 09:24:03;;;;;;;6.10;3.07;;;;;;;7.81;49.27;99177.38;5014292;28;20043;-61
2021/04/04 09:26:29;;;;;;;5.93;4.23;;;;;;;7.24;50.63;99179.00;5015509;28;20037;-60
2021/04/04 09:28:55;;;;;;;3.83;3.37;;;;;;;7.23;51.79;99173.88;5015339;28;20248;-60
2021/04/04 09:31:29;;;;;;;4.03;3.63;;;;;;;7.34;50.47;99169.69;5015380;28;20036;-60
2021/04/04 09:34:08;;;;;;;2.97;2.67;;;;;;;7.10;49.84;99175.53;5016553;28;20063;-60
2021/04/04 09:36:44;;;;;;;3.57;2.87;;;;;;;6.82;50.11;99179.69;5015021;28;20278;-61
2021/04/04 09:39:11;;;;;;;3.20;2.60;;;;;;;6.93;49.93;99171.22;5017419;28;20033;-61
2021/04/04 09:41:40;;;;;;;3.20;2.90;;;;;;;6.73;50.85;99161.81;5016424;28;20084;-60
2021/04/04 09:44:08;;;;;;;3.23;2.87;;;;;;;6.66;50.51;99167.69;5014775;28;20253;-61
2021/04/04 09:46:52;;;;;;;3.43;2.43;;;;;;;6.96;50.91;99158.50;5018811;28;20311;-61
2021/04/04 09:49:43;;;;;;;3.03;2.13;;;;;;;7.00;49.48;99158.50;5013833;28;20288;-59
2021/04/04 09:52:29;;;;;;;2.37;2.17;;;;;;;6.76;50.25;99166.03;5013924;28;20030;-61
2021/04/04 09:55:00;;;;;;;3.60;2.23;;;;;;;6.87;50.13;99157.59;5016079;28;20057;-62
2021/04/04 09:57:26;;;;;;;5.63;2.60;;;;;;;7.00;49.67;99158.50;5014454;28;20495;-61
2021/04/04 09:59:52;;;;;;;2.83;2.50;;;;;;;6.86;50.51;99160.16;5015226;28;20049;-60
2021/04/04 10:02:35;;;;;;;2.93;2.23;;;;;;;7.06;49.09;99148.34;5014142;28;20279;-62
2021/04/04 10:05:01;;;;;;;3.57;2.20;;;;;;;6.80;49.80;99155.03;5014184;28;20026;-62
2021/04/04 10:07:33;;;;;;;3.33;2.77;;;;;;;6.76;50.01;99159.25;5014350;28;20030;-61
2021/04/04 10:10:00;;;;;;;3.77;3.00;;;;;;;6.87;47.95;99139.75;5014879;28;20061;-61
2021/04/04 10:12:25;;;;;;;2.37;2.17;;;;;;;7.10;47.53;99133.91;5016245;28;20022;-61
2021/04/04 10:15:10;;;;;;;3.60;2.40;;;;;;;7.71;47.23;99129.75;5013680;28;20043;-61
2021/04/04 10:17:35;;;;;;;2.37;1.97;;;;;;;7.86;46.04;99137.41;5014328;28;20041;-61
2021/04/04 10:20:05;;;;;;;3.10;2.70;;;;;;;8.29;44.72;99125.47;5015394;28;20013;-62
2021/04/04 10:22:50;;;;;;;3.23;2.93;;;;;;;8.28;44.16;99124.59;5016024;28;20026;-62
2021/04/04 10:25:16;;;;;;;4.30;2.95;;;;;;;8.35;42.59;99116.97;5015049;28;20303;-61
2021/04/04 10:27:42;;;;;;;2.80;2.40;;;;;;;8.60;42.19;99110.91;5014215;28;20117;-61
2021/04/04 10:30:12;;;;;;;3.50;2.43;;;;;;;8.77;41.45;99104.03;5016147;28;20420;-61
2021/04/04 10:32:41;;;;;;;4.57;3.30;;;;;;;9.14;41.51;99105.56;5013678;28;20109;-61
2021/04/04 10:35:08;;;;;;;2.23;1.93;;;;;;;9.37;40.38;99102.88;5014587;28;20458;-59
2021/04/04 10:37:34;;;;;;;3.80;3.00;;;;;;;9.45;41.20;99102.81;5015767;28;20125;-59
2021/04/04 10:40:04;;;;;;;6.27;4.57;;;;;;;9.21;40.47;99092.75;5014389;28;20033;-60
2021/04/04 10:42:30;;;;;;;2.97;2.43;;;;;;;8.95;40.98;99096.28;5015308;28;20026;-62
2021/04/04 10:45:26;;;;;;;2.47;2.27;;;;;;;8.83;41.30;99093.78;5016535;28;20097;-61
2021/04/04 10:48:07;;;;;;;2.70;2.50;;;;;;;8.75;41.58;99095.50;5012353;28;20034;-62
2021/04/04 10:50:34;;;;;;;2.43;2.23;;;;;;;8.71;41.29;99083.59;5019443;28;20426;-62
2021/04/04 10:53:00;;;;;;;3.67;2.53;;;;;;;9.09;40.72;99083.41;5034762;28;20307;-61
2021/04/04 10:55:26;;;;;;;3.67;2.10;;;;;;;8.81;42.38;99087.84;5019660;28;20029;-62
2021/04/04 10:57:53;;;;;;;2.63;2.00;;;;;;;9.14;40.90;99090.22;5005818;28;20042;-61
2021/04/04 11:00:19;;;;;;;2.30;2.10;;;;;;;8.89;41.16;99086.09;5012936;28;20049;-61
2021/04/04 11:02:45;;;;;;;2.80;2.00;;;;;;;9.11;40.58;99087.69;5014428;28;20417;-61
2021/04/04 11:05:12;;;;;;;2.97;2.70;;;;;;;9.12;41.07;99084.22;5014704;28;20101;-60
2021/04/04 11:07:39;;;;;;;1.70;1.60;;;;;;;8.64;40.97;99076.84;5015151;28;20399;-61
2021/04/04 11:10:07;;;;;;;2.27;1.70;;;;;;;8.24;41.36;99088.84;5014980;28;20073;-62
2021/04/04 11:12:34;;;;;;;2.17;1.63;;;;;;;7.98;42.25;99094.00;5013592;28;20034;-60
2021/04/04 11:15:03;;;;;;;2.03;1.70;;;;;;;7.79;43.02;99090.63;5012873;28;20036;-60
2021/04/04 11:17:31;;;;;;;1.80;1.70;;;;;;;8.06;41.71;99086.34;5014289;28;20044;-60
2021/04/04 11:19:57;;;;;;;2.07;1.70;;;;;;;7.95;42.01;99086.34;5015457;28;20026;-60
2021/04/04 11:22:23;;;;;;;2.77;1.97;;;;;;;7.95;42.20;99080.38;5018255;28;20030;-62
2021/04/04 11:24:59;;;;;;;2.53;2.00;;;;;;;8.52;41.90;99069.22;5017608;28;20033;-61
2021/04/04 11:27:48;;;;;;;2.10;1.90;;;;;;;8.11;41.10;99089.72;5017669;28;20038;-60
2021/04/04 11:30:23;;;;;;;2.20;2.00;;;;;;;7.98;41.14;99072.72;5019020;28;20044;-59
2021/04/04 11:33:18;;;;;;;1.73;1.60;;;;;;;8.17;41.18;99076.94;5022351;28;20041;-62
2021/04/04 11:36:01;;;;;;;1.50;1.40;;;;;;;8.38;41.17;99061.59;5018817;28;20037;-62
2021/04/04 11:38:28;;;;;;;4.03;2.20;;;;;;;8.45;41.35;99077.75;5019326;28;20538;-62
2021/04/04 11:41:13;;;;;;;3.70;2.10;;;;;;;8.28;41.28;99067.53;5017918;28;20383;-60
2021/04/04 11:43:39;;;;;;;5.22;2.30;;;;;;;8.44;40.54;99064.13;5017554;28;20042;-60
2021/04/04 11:46:05;;;;;;;1.63;1.50;;;;;;;8.11;40.66;99066.72;5016507;28;20037;-62
2021/04/04 11:48:33;;;;;;;2.73;1.40;;;;;;;8.16;40.85;99065.03;5016134;28;20034;-61
2021/04/04 11:51:11;;;;;;;3.67;1.53;;;;;;;8.30;40.99;99055.66;5015787;28;20033;-61
2021/04/04 11:53:41;;;;;;;2.17;1.70;;;;;;;8.81;38.38;99049.47;5018848;28;20025;-61
2021/04/04 12:04:48;;;;;;;3.60;2.10;;;;;;;8.85;38.35;99042.66;5119242;27;20718;-59
2021/04/04 12:07:17;;;;;;;2.27;1.67;;;;;;;8.90;38.97;99035.81;5107446;28;20036;-59
2021/04/04 12:09:44;;;;;;;2.10;1.80;;;;;;;9.18;38.60;99029.63;5107266;28;20134;-60
2021/04/04 12:12:11;;;;;;;3.43;2.30;;;;;;;9.42;37.60;99038.88;5107322;28;20031;-60